sensor_id;sensor_type;location;lat;lon;timestamp;pressure;altitude;pressure_sealevel;temperature;humidity
12664;BME280;6396;58.490;15.528;2023-02-12T00:00:01;102054.66;;;0.06;100.00
12664;BME280;6396;58.490;15.528;2023-02-12T00:02:27;102082.78;;;0.38;100.00
12664;BME280;6396;58.490;15.528;2023-02-12T00:04:54;102063.63;;;0.14;100.00
12664;BME280;6396;58.490;15.528;2023-02-12T00:07:21;102116.72;;;0.21;100.00
12664;BME280;6396;58.490;15.528;2023-02-12T00:09:48;102064.25;;;0.29;100.00
12664;BME280;6396;58.490;15.528;2023-02-12T00:12:15;101793.13;;;-1.35;100.00
12664;BME280;6396;58.490;15.528;2023-02-12T00:14:43;102004.03;;;-0.05;100.00
12664;BME280;6396;58.490;15.528;2023-02-12T00:17:10;102049.25;;;0.00;100.00
12664;BME280;6396;58.490;15.528;2023-02-12T00:19:37;102103.59;;;0.62;100.00
12664;BME280;6396;58.490;15.528;2023-02-12T00:22:03;102070.06;;;0.46;100.00
12664;BME280;6396;58.490;15.528;2023-02-12T00:24:31;102066.66;;;0.47;100.00
12664;BME280;6396;58.490;15.528;2023-02-12T00:26:58;102084.44;;;0.36;100.00
12664;BME280;6396;58.490;15.528;2023-02-12T00:29:24;101404.59;;;-3.37;100.00
12664;BME280;6396;58.490;15.528;2023-02-12T00:31:52;102117.88;;;0.73;100.00
12664;BME280;6396;58.490;15.528;2023-02-12T00:34:19;102132.13;;;0.60;100.00
12664;BME280;6396;58.490;15.528;2023-02-12T00:36:46;102113.53;;;0.28;100.00
12664;BME280;6396;58.490;15.528;2023-02-12T00:39:12;102052.50;;;0.17;100.00
12664;BME280;6396;58.490;15.528;2023-02-12T00:41:39;102110.69;;;0.66;100.00
12664;BME280;6396;58.490;15.528;2023-02-12T00:44:06;102094.28;;;0.45;100.00
12664;BME280;6396;58.490;15.528;2023-02-12T00:46:32;102036.88;;;0.39;100.00
12664;BME280;6396;58.490;15.528;2023-02-12T00:49:01;102090.69;;;0.41;100.00
12664;BME280;6396;58.490;15.528;2023-02-12T00:51:27;101906.56;;;-0.43;100.00
12664;BME280;6396;58.490;15.528;2023-02-12T00:53:54;102101.38;;;0.72;100.00
12664;BME280;6396;58.490;15.528;2023-02-12T00:56:21;102074.63;;;0.29;100.00
12664;BME280;6396;58.490;15.528;2023-02-12T00:58:48;102108.19;;;0.69;100.00
12664;BME280;6396;58.490;15.528;2023-02-12T01:01:15;102111.03;;;0.53;100.00
12664;BME280;6396;58.490;15.528;2023-02-12T01:03:43;102046.28;;;0.35;100.00
12664;BME280;6396;58.490;15.528;2023-02-12T01:06:11;102105.00;;;0.76;100.00
12664;BME280;6396;58.490;15.528;2023-02-12T01:08:37;102063.44;;;0.32;100.00
12664;BME280;6396;58.490;15.528;2023-02-12T01:11:05;101784.56;;;-1.12;100.00
12664;BME280;6396;58.490;15.528;2023-02-12T01:13:33;102164.66;;;0.73;100.00
12664;BME280;6396;58.490;15.528;2023-02-12T01:16:02;102035.03;;;0.35;100.00
12664;BME280;6396;58.490;15.528;2023-02-12T01:18:30;101983.97;;;-0.31;100.00
12664;BME280;6396;58.490;15.528;2023-02-12T01:20:57;102080.63;;;0.28;100.00
12664;BME280;6396;58.490;15.528;2023-02-12T01:23:27;101796.22;;;-1.01;100.00
12664;BME280;6396;58.490;15.528;2023-02-12T01:25:53;101734.50;;;-1.33;100.00
12664;BME280;6396;58.490;15.528;2023-02-12T01:28:20;101872.31;;;-0.56;100.00
12664;BME280;6396;58.490;15.528;2023-02-12T01:30:47;101894.19;;;-0.50;100.00
12664;BME280;6396;58.490;15.528;2023-02-12T01:33:13;101768.31;;;-1.08;100.00
12664;BME280;6396;58.490;15.528;2023-02-12T01:35:40;102093.66;;;0.74;100.00
12664;BME280;6396;58.490;15.528;2023-02-12T01:38:07;102018.72;;;0.17;100.00
12664;BME280;6396;58.490;15.528;2023-02-12T01:40:35;102007.66;;;0.21;100.00
12664;BME280;6396;58.490;15.528;2023-02-12T01:43:02;102066.59;;;0.45;100.00
12664;BME280;6396;58.490;15.528;2023-02-12T01:45:50;102095.19;;;0.69;100.00
12664;BME280;6396;58.490;15.528;2023-02-12T01:48:22;102091.84;;;0.71;100.00
12664;BME280;6396;58.490;15.528;2023-02-12T01:50:52;102086.78;;;0.76;100.00
12664;BME280;6396;58.490;15.528;2023-02-12T01:53:20;102093.84;;;0.78;100.00
12664;BME280;6396;58.490;15.528;2023-02-12T01:55:54;101903.72;;;-0.49;100.00
12664;BME280;6396;58.490;15.528;2023-02-12T01:58:24;102085.53;;;0.88;100.00
12664;BME280;6396;58.490;15.528;2023-02-12T02:00:52;102088.25;;;0.91;100.00
12664;BME280;6396;58.490;15.528;2023-02-12T02:03:19;101681.28;;;-1.47;100.00
12664;BME280;6396;58.490;15.528;2023-02-12T02:05:51;101872.81;;;-0.21;100.00
12664;BME280;6396;58.490;15.528;2023-02-12T02:08:20;102031.34;;;0.52;100.00
12664;BME280;6396;58.490;15.528;2023-02-12T02:10:47;101871.41;;;-0.35;100.00
12664;BME280;6396;58.490;15.528;2023-02-12T02:13:16;102048.53;;;0.72;100.00
12664;BME280;6396;58.490;15.528;2023-02-12T02:16:10;101974.38;;;0.34;100.00
12664;BME280;6396;58.490;15.528;2023-02-12T02:18:42;102053.88;;;1.00;100.00
12664;BME280;6396;58.490;15.528;2023-02-12T02:21:39;102054.81;;;1.02;100.00
12664;BME280;6396;58.490;15.528;2023-02-12T02:24:25;102052.28;;;1.03;100.00
12664;BME280;6396;58.490;15.528;2023-02-12T02:27:17;102052.47;;;1.08;100.00
12664;BME280;6396;58.490;15.528;2023-02-12T02:30:11;101983.16;;;0.61;100.00
12664;BME280;6396;58.490;15.528;2023-02-12T02:32:41;101880.13;;;0.13;100.00
12664;BME280;6396;58.490;15.528;2023-02-12T02:35:13;102056.28;;;1.19;100.00
12664;BME280;6396;58.490;15.528;2023-02-12T02:37:46;101984.53;;;0.75;100.00
12664;BME280;6396;58.490;15.528;2023-02-12T02:40:18;102004.38;;;0.97;100.00
12664;BME280;6396;58.490;15.528;2023-02-12T02:42:49;101790.03;;;-0.60;100.00
12664;BME280;6396;58.490;15.528;2023-02-12T02:45:24;101739.53;;;-0.70;100.00
12664;BME280;6396;58.490;15.528;2023-02-12T02:47:57;101974.47;;;0.84;100.00
12664;BME280;6396;58.490;15.528;2023-02-12T02:50:27;102033.00;;;1.22;100.00
12664;BME280;6396;58.490;15.528;2023-02-12T02:52:56;102042.44;;;1.19;100.00
12664;BME280;6396;58.490;15.528;2023-02-12T02:55:29;102005.84;;;0.89;100.00
12664;BME280;6396;58.490;15.528;2023-02-12T02:58:00;101970.25;;;0.88;100.00
12664;BME280;6396;58.490;15.528;2023-02-12T03:00:34;102035.63;;;1.22;100.00
12664;BME280;6396;58.490;15.528;2023-02-12T03:03:08;102025.16;;;1.21;100.00
12664;BME280;6396;58.490;15.528;2023-02-12T03:05:39;102021.63;;;1.19;100.00
12664;BME280;6396;58.490;15.528;2023-02-12T03:08:11;102059.03;;;1.22;100.00
12664;BME280;6396;58.490;15.528;2023-02-12T03:10:42;102019.97;;;1.21;100.00
12664;BME280;6396;58.490;15.528;2023-02-12T03:13:11;102000.66;;;0.89;100.00
12664;BME280;6396;58.490;15.528;2023-02-12T03:15:43;101963.22;;;0.84;100.00
12664;BME280;6396;58.490;15.528;2023-02-12T03:18:17;101976.13;;;0.82;100.00
12664;BME280;6396;58.490;15.528;2023-02-12T03:20:47;102052.41;;;1.06;100.00
12664;BME280;6396;58.490;15.528;2023-02-12T03:23:21;101866.28;;;0.14;100.00
12664;BME280;6396;58.490;15.528;2023-02-12T03:25:53;102024.19;;;0.93;100.00
12664;BME280;6396;58.490;15.528;2023-02-12T03:28:24;102046.53;;;0.88;100.00
12664;BME280;6396;58.490;15.528;2023-02-12T03:31:03;102047.31;;;0.86;100.00
12664;BME280;6396;58.490;15.528;2023-02-12T03:33:41;102019.44;;;0.82;100.00
12664;BME280;6396;58.490;15.528;2023-02-12T03:36:18;101931.84;;;0.31;100.00
12664;BME280;6396;58.490;15.528;2023-02-12T03:38:49;102043.94;;;0.88;100.00
12664;BME280;6396;58.490;15.528;2023-02-12T03:41:21;102011.84;;;0.88;100.00
12664;BME280;6396;58.490;15.528;2023-02-12T03:43:53;101992.06;;;0.91;100.00
12664;BME280;6396;58.490;15.528;2023-02-12T03:46:26;101848.78;;;-0.15;100.00
12664;BME280;6396;58.490;15.528;2023-02-12T03:49:00;101969.47;;;0.42;100.00
12664;BME280;6396;58.490;15.528;2023-02-12T03:51:34;102011.53;;;0.79;100.00
12664;BME280;6396;58.490;15.528;2023-02-12T03:54:03;102029.63;;;0.76;100.00
12664;BME280;6396;58.490;15.528;2023-02-12T03:56:34;101793.22;;;-0.67;100.00
12664;BME280;6396;58.490;15.528;2023-02-12T03:59:03;102053.28;;;0.83;100.00
12664;BME280;6396;58.490;15.528;2023-02-12T04:01:33;101858.97;;;0.03;100.00
12664;BME280;6396;58.490;15.528;2023-02-12T04:04:03;102030.84;;;0.85;100.00
12664;BME280;6396;58.490;15.528;2023-02-12T04:06:30;102004.84;;;0.85;100.00
12664;BME280;6396;58.490;15.528;2023-02-12T04:09:00;102002.13;;;0.82;100.00
12664;BME280;6396;58.490;15.528;2023-02-12T04:11:30;102063.03;;;0.89;100.00
12664;BME280;6396;58.490;15.528;2023-02-12T04:14:19;101997.06;;;0.62;100.00
12664;BME280;6396;58.490;15.528;2023-02-12T04:16:51;101987.50;;;0.86;100.00
12664;BME280;6396;58.490;15.528;2023-02-12T04:19:24;101969.91;;;0.54;100.00
12664;BME280;6396;58.490;15.528;2023-02-12T04:22:10;101987.59;;;0.87;100.00
12664;BME280;6396;58.490;15.528;2023-02-12T04:24:49;101996.25;;;0.88;100.00
12664;BME280;6396;58.490;15.528;2023-02-12T04:27:25;101989.31;;;0.87;100.00
12664;BME280;6396;58.490;15.528;2023-02-12T04:29:59;101988.59;;;0.91;100.00
12664;BME280;6396;58.490;15.528;2023-02-12T04:32:33;102011.09;;;0.90;100.00
12664;BME280;6396;58.490;15.528;2023-02-12T04:35:08;102019.69;;;0.89;100.00
12664;BME280;6396;58.490;15.528;2023-02-12T04:37:41;101840.78;;;0.03;100.00
12664;BME280;6396;58.490;15.528;2023-02-12T04:40:11;102003.34;;;0.92;100.00
12664;BME280;6396;58.490;15.528;2023-02-12T04:42:42;101987.03;;;0.96;100.00
12664;BME280;6396;58.490;15.528;2023-02-12T04:45:10;102031.31;;;0.99;100.00
12664;BME280;6396;58.490;15.528;2023-02-12T04:47:39;101985.50;;;1.02;100.00
12664;BME280;6396;58.490;15.528;2023-02-12T04:50:07;101988.81;;;0.73;100.00
12664;BME280;6396;58.490;15.528;2023-02-12T04:52:34;102003.66;;;1.01;100.00
12664;BME280;6396;58.490;15.528;2023-02-12T04:55:00;101959.00;;;0.64;100.00
12664;BME280;6396;58.490;15.528;2023-02-12T04:57:27;101907.84;;;0.38;100.00
12664;BME280;6396;58.490;15.528;2023-02-12T04:59:54;102011.81;;;0.86;100.00
12664;BME280;6396;58.490;15.528;2023-02-12T05:02:21;101728.03;;;-0.54;100.00
12664;BME280;6396;58.490;15.528;2023-02-12T05:04:49;101833.72;;;-0.02;100.00
12664;BME280;6396;58.490;15.528;2023-02-12T05:07:16;101975.00;;;0.99;100.00
12664;BME280;6396;58.490;15.528;2023-02-12T05:09:43;102006.31;;;1.02;100.00
12664;BME280;6396;58.490;15.528;2023-02-12T05:12:10;101900.59;;;0.53;100.00
12664;BME280;6396;58.490;15.528;2023-02-12T05:14:36;102013.41;;;1.06;100.00
12664;BME280;6396;58.490;15.528;2023-02-12T05:17:03;101892.16;;;0.60;100.00
12664;BME280;6396;58.490;15.528;2023-02-12T05:19:30;101999.44;;;1.04;100.00
12664;BME280;6396;58.490;15.528;2023-02-12T05:21:58;101900.59;;;0.53;100.00
12664;BME280;6396;58.490;15.528;2023-02-12T05:24:25;101822.25;;;0.16;100.00
12664;BME280;6396;58.490;15.528;2023-02-12T05:26:52;101899.97;;;0.60;100.00
12664;BME280;6396;58.490;15.528;2023-02-12T05:29:19;101812.47;;;0.09;100.00
12664;BME280;6396;58.490;15.528;2023-02-12T05:31:46;101974.53;;;1.11;100.00
12664;BME280;6396;58.490;15.528;2023-02-12T05:34:13;101626.16;;;-0.75;100.00
12664;BME280;6396;58.490;15.528;2023-02-12T05:36:40;101890.22;;;0.78;100.00
12664;BME280;6396;58.490;15.528;2023-02-12T05:39:09;101799.38;;;0.31;100.00
12664;BME280;6396;58.490;15.528;2023-02-12T05:41:36;101786.34;;;0.04;100.00
12664;BME280;6396;58.490;15.528;2023-02-12T05:44:03;101878.34;;;0.86;100.00
12664;BME280;6396;58.490;15.528;2023-02-12T05:46:30;101900.47;;;1.00;100.00
12664;BME280;6396;58.490;15.528;2023-02-12T05:48:57;101991.41;;;1.22;100.00
12664;BME280;6396;58.490;15.528;2023-02-12T05:51:25;101972.97;;;1.16;100.00
12664;BME280;6396;58.490;15.528;2023-02-12T05:53:56;101987.50;;;1.35;100.00
12664;BME280;6396;58.490;15.528;2023-02-12T05:56:27;101996.97;;;1.33;100.00
12664;BME280;6396;58.490;15.528;2023-02-12T05:58:55;101970.63;;;0.98;100.00
12664;BME280;6396;58.490;15.528;2023-02-12T06:01:24;101627.44;;;-1.10;100.00
12664;BME280;6396;58.490;15.528;2023-02-12T06:03:51;101961.25;;;1.03;100.00
12664;BME280;6396;58.490;15.528;2023-02-12T06:06:18;101820.69;;;0.21;100.00
12664;BME280;6396;58.490;15.528;2023-02-12T06:08:47;101884.28;;;0.57;100.00
12664;BME280;6396;58.490;15.528;2023-02-12T06:11:14;101986.72;;;1.39;100.00
12664;BME280;6396;58.490;15.528;2023-02-12T06:13:43;101993.91;;;1.46;100.00
12664;BME280;6396;58.490;15.528;2023-02-12T06:16:16;101766.47;;;-0.19;100.00
12664;BME280;6396;58.490;15.528;2023-02-12T06:18:43;102046.97;;;1.51;100.00
12664;BME280;6396;58.490;15.528;2023-02-12T06:21:10;101993.31;;;1.54;100.00
12664;BME280;6396;58.490;15.528;2023-02-12T06:23:37;101946.53;;;0.79;100.00
12664;BME280;6396;58.490;15.528;2023-02-12T06:26:04;101902.66;;;1.13;100.00
12664;BME280;6396;58.490;15.528;2023-02-12T06:28:30;101626.72;;;-0.59;100.00
12664;BME280;6396;58.490;15.528;2023-02-12T06:30:59;101985.97;;;1.68;100.00
12664;BME280;6396;58.490;15.528;2023-02-12T06:33:25;101986.88;;;1.70;100.00
12664;BME280;6396;58.490;15.528;2023-02-12T06:35:52;101926.47;;;1.25;100.00
12664;BME280;6396;58.490;15.528;2023-02-12T06:38:19;101950.22;;;1.62;100.00
12664;BME280;6396;58.490;15.528;2023-02-12T06:40:46;101970.63;;;1.77;100.00
12664;BME280;6396;58.490;15.528;2023-02-12T06:43:14;101994.22;;;1.81;100.00
12664;BME280;6396;58.490;15.528;2023-02-12T06:45:41;101940.88;;;1.42;100.00
12664;BME280;6396;58.490;15.528;2023-02-12T06:48:09;101467.66;;;-1.11;100.00
12664;BME280;6396;58.490;15.528;2023-02-12T06:50:36;101905.59;;;1.24;100.00
12664;BME280;6396;58.490;15.528;2023-02-12T06:53:02;101959.34;;;1.50;100.00
12664;BME280;6396;58.490;15.528;2023-02-12T06:55:29;101805.69;;;0.89;100.00
12664;BME280;6396;58.490;15.528;2023-02-12T06:57:56;101982.28;;;1.89;100.00
12664;BME280;6396;58.490;15.528;2023-02-12T07:00:23;101733.84;;;0.38;100.00
12664;BME280;6396;58.490;15.528;2023-02-12T07:02:53;102014.13;;;1.81;100.00
12664;BME280;6396;58.490;15.528;2023-02-12T07:05:22;101851.66;;;1.18;100.00
12664;BME280;6396;58.490;15.528;2023-02-12T07:07:49;101969.84;;;2.07;100.00
12664;BME280;6396;58.490;15.528;2023-02-12T07:10:16;101962.97;;;2.09;100.00
12664;BME280;6396;58.490;15.528;2023-02-12T07:12:57;101992.44;;;2.08;100.00
12664;BME280;6396;58.490;15.528;2023-02-12T07:15:24;101985.63;;;2.13;100.00
12664;BME280;6396;58.490;15.528;2023-02-12T07:17:51;102043.88;;;2.15;100.00
12664;BME280;6396;58.490;15.528;2023-02-12T07:20:21;101689.84;;;-0.10;100.00
12664;BME280;6396;58.490;15.528;2023-02-12T07:22:50;101750.56;;;1.00;100.00
12664;BME280;6396;58.490;15.528;2023-02-12T07:25:29;102013.06;;;2.29;100.00
12664;BME280;6396;58.490;15.528;2023-02-12T07:28:06;102036.63;;;2.34;100.00
12664;BME280;6396;58.490;15.528;2023-02-12T07:30:33;101997.66;;;2.38;100.00
12664;BME280;6396;58.490;15.528;2023-02-12T07:33:12;101206.75;;;-2.45;100.00
12664;BME280;6396;58.490;15.528;2023-02-12T07:39:14;101114.13;;;-2.58;100.00
12664;BME280;6396;58.490;15.528;2023-02-12T07:41:41;101577.97;;;0.36;100.00
12664;BME280;6396;58.490;15.528;2023-02-12T07:44:10;101891.84;;;2.13;100.00
12664;BME280;6396;58.490;15.528;2023-02-12T07:46:39;101884.81;;;2.09;100.00
12664;BME280;6396;58.490;15.528;2023-02-12T07:49:07;101908.59;;;1.92;100.00
12664;BME280;6396;58.490;15.528;2023-02-12T07:51:36;101651.22;;;0.54;100.00
12664;BME280;6396;58.490;15.528;2023-02-12T07:54:04;101957.63;;;2.66;100.00
12664;BME280;6396;58.490;15.528;2023-02-12T07:56:34;101896.88;;;2.37;100.00
12664;BME280;6396;58.490;15.528;2023-02-12T07:59:03;101979.50;;;2.71;100.00
12664;BME280;6396;58.490;15.528;2023-02-12T08:01:32;101946.53;;;2.73;100.00
12664;BME280;6396;58.490;15.528;2023-02-12T08:04:01;101877.03;;;2.11;100.00
12664;BME280;6396;58.490;15.528;2023-02-12T08:06:29;101846.38;;;2.01;100.00
12664;BME280;6396;58.490;15.528;2023-02-12T08:08:58;101519.13;;;0.37;100.00
12664;BME280;6396;58.490;15.528;2023-02-12T08:11:26;101976.50;;;2.88;100.00
12664;BME280;6396;58.490;15.528;2023-02-12T08:13:55;101882.72;;;2.59;100.00
12664;BME280;6396;58.490;15.528;2023-02-12T08:17:07;101899.69;;;2.76;100.00
12664;BME280;6396;58.490;15.528;2023-02-12T08:30:21;101231.75;;;-1.70;100.00
12664;BME280;6396;58.490;15.528;2023-02-12T08:32:50;101662.84;;;1.56;100.00
12664;BME280;6396;58.490;15.528;2023-02-12T08:35:18;101731.22;;;2.12;100.00
12664;BME280;6396;58.490;15.528;2023-02-12T08:37:45;101769.41;;;2.45;100.00
12664;BME280;6396;58.490;15.528;2023-02-12T08:40:12;101715.50;;;2.09;100.00
12664;BME280;6396;58.490;15.528;2023-02-12T08:42:39;101826.91;;;2.85;100.00
12664;BME280;6396;58.490;15.528;2023-02-12T08:45:07;101911.88;;;3.11;100.00
12664;BME280;6396;58.490;15.528;2023-02-12T08:47:35;101939.06;;;3.55;100.00
12664;BME280;6396;58.490;15.528;2023-02-12T08:50:02;101935.69;;;3.59;100.00
12664;BME280;6396;58.490;15.528;2023-02-12T08:52:29;101865.28;;;3.26;100.00
12664;BME280;6396;58.490;15.528;2023-02-12T08:54:56;101878.69;;;3.41;100.00
12664;BME280;6396;58.490;15.528;2023-02-12T08:57:22;101930.84;;;3.77;100.00
12664;BME280;6396;58.490;15.528;2023-02-12T08:59:49;101864.78;;;3.42;100.00
12664;BME280;6396;58.490;15.528;2023-02-12T09:02:16;101933.84;;;3.93;100.00
12664;BME280;6396;58.490;15.528;2023-02-12T09:04:44;101863.81;;;3.76;100.00
12664;BME280;6396;58.490;15.528;2023-02-12T09:07:11;101670.25;;;2.40;100.00
12664;BME280;6396;58.490;15.528;2023-02-12T09:09:38;101853.03;;;3.62;100.00
12664;BME280;6396;58.490;15.528;2023-02-12T09:12:05;101840.16;;;3.70;100.00
12664;BME280;6396;58.490;15.528;2023-02-12T09:14:31;101900.66;;;3.89;100.00
12664;BME280;6396;58.490;15.528;2023-02-12T09:16:58;101940.75;;;4.30;100.00
12664;BME280;6396;58.490;15.528;2023-02-12T09:19:25;101871.19;;;3.96;100.00
12664;BME280;6396;58.490;15.528;2023-02-12T09:21:54;101513.41;;;1.45;100.00
12664;BME280;6396;58.490;15.528;2023-02-12T09:24:21;101903.50;;;4.43;100.00
12664;BME280;6396;58.490;15.528;2023-02-12T09:26:48;101715.59;;;2.84;100.00
12664;BME280;6396;58.490;15.528;2023-02-12T09:56:55;101607.81;;;3.26;100.00
12664;BME280;6396;58.490;15.528;2023-02-12T09:59:28;101618.34;;;3.32;100.00
12664;BME280;6396;58.490;15.528;2023-02-12T10:01:56;102051.19;;;5.02;100.00
12664;BME280;6396;58.490;15.528;2023-02-12T10:30:13;101135.13;;;0.92;100.00
12664;BME280;6396;58.490;15.528;2023-02-12T10:32:45;101884.03;;;5.23;100.00
12664;BME280;6396;58.490;15.528;2023-02-12T10:35:14;101949.88;;;5.47;100.00
12664;BME280;6396;58.490;15.528;2023-02-12T10:37:44;101362.88;;;2.45;100.00
12664;BME280;6396;58.490;15.528;2023-02-12T10:40:17;101608.06;;;3.88;100.00
12664;BME280;6396;58.490;15.528;2023-02-12T10:42:47;101532.50;;;3.46;100.00
12664;BME280;6396;58.490;15.528;2023-02-12T10:45:19;101066.09;;;0.63;100.00
12664;BME280;6396;58.490;15.528;2023-02-12T10:47:49;101583.97;;;3.53;100.00
12664;BME280;6396;58.490;15.528;2023-02-12T10:50:23;101537.94;;;3.60;100.00
12664;BME280;6396;58.490;15.528;2023-02-12T10:52:55;101736.53;;;4.66;100.00
12664;BME280;6396;58.490;15.528;2023-02-12T10:55:24;101924.09;;;5.74;100.00
12664;BME280;6396;58.490;15.528;2023-02-12T10:57:52;101911.81;;;5.70;100.00
12664;BME280;6396;58.490;15.528;2023-02-12T11:00:25;101409.66;;;2.85;100.00
12664;BME280;6396;58.490;15.528;2023-02-12T11:03:03;101908.31;;;5.71;100.00
12664;BME280;6396;58.490;15.528;2023-02-12T11:05:32;101917.91;;;5.70;100.00
12664;BME280;6396;58.490;15.528;2023-02-12T11:11:11;101876.22;;;5.26;100.00
12664;BME280;6396;58.490;15.528;2023-02-12T11:13:43;101635.38;;;4.08;100.00
12664;BME280;6396;58.490;15.528;2023-02-12T11:16:26;101968.47;;;5.63;100.00
12664;BME280;6396;58.490;15.528;2023-02-12T11:18:58;101170.25;;;0.73;100.00
12664;BME280;6396;58.490;15.528;2023-02-12T11:21:29;101607.50;;;3.56;100.00
12664;BME280;6396;58.490;15.528;2023-02-12T11:30:29;101081.44;;;0.92;100.00
12664;BME280;6396;58.490;15.528;2023-02-12T11:33:21;101796.22;;;4.88;100.00
12664;BME280;6396;58.490;15.528;2023-02-12T11:35:51;101828.28;;;5.31;100.00
12664;BME280;6396;58.490;15.528;2023-02-12T11:38:28;100876.97;;;0.00;100.00
12664;BME280;6396;58.490;15.528;2023-02-12T11:41:00;101105.97;;;1.06;100.00
12664;BME280;6396;58.490;15.528;2023-02-12T11:50:28;101704.16;;;4.57;100.00
12664;BME280;6396;58.490;15.528;2023-02-12T11:53:01;101394.31;;;3.03;100.00
12664;BME280;6396;58.490;15.528;2023-02-12T11:55:43;100965.59;;;0.19;100.00
12664;BME280;6396;58.490;15.528;2023-02-12T11:58:30;101225.28;;;1.76;100.00
12664;BME280;6396;58.490;15.528;2023-02-12T12:29:47;101077.78;;;1.28;100.00
12664;BME280;6396;58.490;15.528;2023-02-12T12:32:36;101179.44;;;1.84;100.00
12664;BME280;6396;58.490;15.528;2023-02-12T12:35:43;101165.78;;;1.51;100.00
12664;BME280;6396;58.490;15.528;2023-02-12T12:52:38;101790.63;;;5.86;100.00
12664;BME280;6396;58.490;15.528;2023-02-12T12:55:29;101876.81;;;6.29;100.00
12664;BME280;6396;58.490;15.528;2023-02-12T12:58:13;101629.72;;;4.96;100.00
12664;BME280;6396;58.490;15.528;2023-02-12T13:00:57;101729.00;;;5.48;100.00
12664;BME280;6396;58.490;15.528;2023-02-12T13:04:01;101824.13;;;6.10;100.00
12664;BME280;6396;58.490;15.528;2023-02-12T13:06:43;101882.22;;;6.47;100.00
12664;BME280;6396;58.490;15.528;2023-02-12T13:09:27;101807.34;;;5.96;100.00
12664;BME280;6396;58.490;15.528;2023-02-12T13:14:53;101723.09;;;5.65;100.00
12664;BME280;6396;58.490;15.528;2023-02-12T13:17:31;101881.41;;;6.53;100.00
12664;BME280;6396;58.490;15.528;2023-02-12T13:20:08;101516.50;;;4.38;100.00
12664;BME280;6396;58.490;15.528;2023-02-12T13:22:44;101768.16;;;6.06;100.00
12664;BME280;6396;58.490;15.528;2023-02-12T13:25:21;101864.88;;;6.61;100.00
12664;BME280;6396;58.490;15.528;2023-02-12T13:27:50;101758.59;;;6.13;100.00
12664;BME280;6396;58.490;15.528;2023-02-12T13:30:24;101648.66;;;5.44;100.00
12664;BME280;6396;58.490;15.528;2023-02-12T13:33:04;101807.72;;;6.27;100.00
12664;BME280;6396;58.490;15.528;2023-02-12T13:35:35;101847.41;;;6.63;100.00
12664;BME280;6396;58.490;15.528;2023-02-12T13:38:05;101703.28;;;5.84;100.00
12664;BME280;6396;58.490;15.528;2023-02-12T13:40:36;101856.16;;;6.62;100.00
12664;BME280;6396;58.490;15.528;2023-02-12T13:43:31;101854.44;;;6.66;100.00
12664;BME280;6396;58.490;15.528;2023-02-12T13:46:06;101787.44;;;6.14;100.00
12664;BME280;6396;58.490;15.528;2023-02-12T13:48:43;101802.56;;;6.35;100.00
12664;BME280;6396;58.490;15.528;2023-02-12T13:51:20;101848.31;;;6.64;100.00
12664;BME280;6396;58.490;15.528;2023-02-12T13:53:59;101852.66;;;6.63;100.00
12664;BME280;6396;58.490;15.528;2023-02-12T13:56:40;101866.66;;;6.62;100.00
12664;BME280;6396;58.490;15.528;2023-02-12T13:59:39;101853.53;;;6.61;100.00
12664;BME280;6396;58.490;15.528;2023-02-12T14:05:15;101864.88;;;6.60;100.00
12664;BME280;6396;58.490;15.528;2023-02-12T14:07:47;101856.84;;;6.42;100.00
12664;BME280;6396;58.490;15.528;2023-02-12T14:10:20;101856.16;;;6.62;100.00
12664;BME280;6396;58.490;15.528;2023-02-12T14:12:50;101842.06;;;6.54;100.00
12664;BME280;6396;58.490;15.528;2023-02-12T14:15:27;101853.53;;;6.61;100.00
12664;BME280;6396;58.490;15.528;2023-02-12T14:18:03;101774.19;;;5.99;100.00
12664;BME280;6396;58.490;15.528;2023-02-12T14:20:31;101725.78;;;5.70;100.00
12664;BME280;6396;58.490;15.528;2023-02-12T14:23:21;101837.59;;;6.43;100.00
12664;BME280;6396;58.490;15.528;2023-02-12T14:26:01;101903.28;;;6.52;100.00
12664;BME280;6396;58.490;15.528;2023-02-12T14:28:46;101636.03;;;5.13;100.00
12664;BME280;6396;58.490;15.528;2023-02-12T14:31:44;101853.31;;;6.40;100.00
12664;BME280;6396;58.490;15.528;2023-02-12T14:34:38;101856.78;;;6.39;100.00
12664;BME280;6396;58.490;15.528;2023-02-12T14:37:11;101826.84;;;6.19;100.00
12664;BME280;6396;58.490;15.528;2023-02-12T14:39:38;101689.56;;;5.36;100.00
12664;BME280;6396;58.490;15.528;2023-02-12T14:42:42;101856.72;;;6.31;100.00
12664;BME280;6396;58.490;15.528;2023-02-12T14:45:30;101818.78;;;6.01;100.00
12664;BME280;6396;58.490;15.528;2023-02-12T14:47:58;101736.66;;;5.33;100.00
12664;BME280;6396;58.490;15.528;2023-02-12T14:50:35;101650.66;;;4.96;100.00
12664;BME280;6396;58.490;15.528;2023-02-12T14:53:09;101679.66;;;5.11;100.00
12664;BME280;6396;58.490;15.528;2023-02-12T14:55:39;101816.91;;;5.89;100.00
12664;BME280;6396;58.490;15.528;2023-02-12T14:58:17;101772.81;;;5.58;100.00
12664;BME280;6396;58.490;15.528;2023-02-12T15:00:50;101911.56;;;6.15;100.00
12664;BME280;6396;58.490;15.528;2023-02-12T15:03:40;101873.97;;;6.13;100.00
12664;BME280;6396;58.490;15.528;2023-02-12T15:06:38;101517.75;;;4.03;100.00
12664;BME280;6396;58.490;15.528;2023-02-12T15:09:14;101355.34;;;3.13;100.00
12664;BME280;6396;58.490;15.528;2023-02-12T15:12:02;101750.66;;;5.33;100.00
12664;BME280;6396;58.490;15.528;2023-02-12T15:14:42;101783.13;;;5.47;100.00
12664;BME280;6396;58.490;15.528;2023-02-12T15:17:54;101769.59;;;5.16;100.00
12664;BME280;6396;58.490;15.528;2023-02-12T15:20:30;101799.63;;;5.40;100.00
12664;BME280;6396;58.490;15.528;2023-02-12T15:23:32;101386.53;;;3.04;100.00
12664;BME280;6396;58.490;15.528;2023-02-12T15:26:00;101973.31;;;5.92;100.00
12664;BME280;6396;58.490;15.528;2023-02-12T15:28:30;101084.78;;;0.87;100.00